createdAt,value
2019-03-15T00:02:07.303Z,6.57
2019-03-15T00:07:10.973Z,7.87
2019-03-15T00:12:17.177Z,8.23
2019-03-15T00:17:20.878Z,8.07
2019-03-15T00:22:24.563Z,9.60
2019-03-15T00:27:28.542Z,8.37
2019-03-15T00:32:33.302Z,8.47
2019-03-15T00:37:37.079Z,9.10
2019-03-15T00:42:40.773Z,7.10
2019-03-15T00:47:44.446Z,9.47
2019-03-15T00:52:48.129Z,9.03
2019-03-15T00:57:51.805Z,7.63
2019-03-15T01:02:55.488Z,10.17
2019-03-15T01:07:59.454Z,6.27
2019-03-15T01:13:03.166Z,8.20
2019-03-15T01:18:06.863Z,9.67
2019-03-15T01:23:10.789Z,7.63
2019-03-15T01:28:14.486Z,10.07
2019-03-15T01:33:18.167Z,6.03
2019-03-15T01:38:24.006Z,10.17
2019-03-15T01:43:27.680Z,7.40
2019-03-15T01:48:31.621Z,7.73
2019-03-15T01:53:35.313Z,6.57
2019-03-15T01:58:46.812Z,8.60
2019-03-15T02:03:50.486Z,8.37
2019-03-15T02:08:54.175Z,11.50
2019-03-15T02:13:57.824Z,9.83
2019-03-15T02:19:01.482Z,5.93
2019-03-15T02:24:05.158Z,11.43
2019-03-15T02:29:08.828Z,6.53
2019-03-15T02:34:12.504Z,10.50
2019-03-15T02:39:16.172Z,12.53
2019-03-15T02:44:19.844Z,6.03
2019-03-15T02:49:23.543Z,9.30
2019-03-15T02:54:27.423Z,7.80
2019-03-15T02:59:31.359Z,7.13
2019-03-15T03:04:35.030Z,8.50
2019-03-15T03:09:38.705Z,7.57
2019-03-15T03:14:42.395Z,7.63
2019-03-15T03:19:46.297Z,8.73
2019-03-15T03:24:50.930Z,7.60
2019-03-15T03:29:54.852Z,4.57
2019-03-15T03:34:58.556Z,5.23
2019-03-15T03:40:02.614Z,6.23
2019-03-15T03:45:06.722Z,5.40
2019-03-15T03:50:10.780Z,5.30
2019-03-15T03:55:14.463Z,5.77
2019-03-15T04:00:18.460Z,3.40
2019-03-15T04:05:23.500Z,4.23
2019-03-15T04:10:27.164Z,5.30
2019-03-15T04:15:30.826Z,6.30
2019-03-15T04:20:34.493Z,3.47
2019-03-15T04:25:40.541Z,7.90
2019-03-15T04:30:43.953Z,4.73
2019-03-15T04:35:47.782Z,6.33
2019-03-15T04:41:35.791Z,4.40
2019-03-15T04:46:39.490Z,6.93
2019-03-15T04:51:43.152Z,3.57
2019-03-15T04:56:46.808Z,3.83
2019-03-15T05:01:50.541Z,3.70
2019-03-15T05:06:56.465Z,4.50
2019-03-15T05:11:59.577Z,4.23
2019-03-15T05:17:03.500Z,5.00
2019-03-15T05:22:07.181Z,2.10
2019-03-15T05:27:13.044Z,1.97
2019-03-15T05:32:16.725Z,3.60
2019-03-15T05:37:20.388Z,4.40
2019-03-15T05:42:24.059Z,2.80
2019-03-15T05:47:27.808Z,3.73
2019-03-15T05:52:31.498Z,2.63
2019-03-15T05:57:35.131Z,5.27
2019-03-15T06:02:39.375Z,1.60
2019-03-15T06:07:45.201Z,3.40
2019-03-15T06:12:49.130Z,2.33
2019-03-15T06:17:52.945Z,4.00
2019-03-15T06:22:56.608Z,5.37
2019-03-15T06:28:00.292Z,4.20
2019-03-15T06:33:03.952Z,3.70
2019-03-15T06:38:07.628Z,3.50
2019-03-15T06:43:13.306Z,3.10
2019-03-15T06:48:16.789Z,4.90
2019-03-15T06:53:20.481Z,3.27
2019-03-15T06:58:24.179Z,4.33
2019-03-15T07:03:28.957Z,3.83
2019-03-15T07:08:32.657Z,3.50
2019-03-15T07:13:36.307Z,3.90
2019-03-15T07:18:39.972Z,4.90
2019-03-15T07:23:43.883Z,5.03
2019-03-15T07:28:47.533Z,5.70
2019-03-15T07:33:51.220Z,3.97
2019-03-15T07:38:54.944Z,5.27
2019-03-15T07:43:58.929Z,5.23
2019-03-15T07:49:03.697Z,4.37
2019-03-15T07:54:07.370Z,3.23
2019-03-15T07:59:11.089Z,2.57
2019-03-15T08:04:17.130Z,5.63
2019-03-15T08:09:20.229Z,4.33
2019-03-15T08:14:23.889Z,4.60
2019-03-15T08:19:27.548Z,5.13
2019-03-15T08:24:31.196Z,6.90
2019-03-15T08:29:34.891Z,9.33
2019-03-15T08:34:38.537Z,7.73
2019-03-15T08:39:42.290Z,21.37
2019-03-15T08:44:45.921Z,11.93
2019-03-15T08:49:49.878Z,10.67
2019-03-15T08:55:04.568Z,10.30
2019-03-15T08:59:58.932Z,12.23
2019-03-15T09:05:02.585Z,10.03
2019-03-15T09:10:06.667Z,13.43
2019-03-15T09:15:10.582Z,8.07
2019-03-15T09:20:14.803Z,11.93
2019-03-15T09:25:20.473Z,7.77
2019-03-15T09:30:24.565Z,11.03
2019-03-15T09:35:28.559Z,7.27
2019-03-15T09:40:32.204Z,7.67
2019-03-15T09:45:35.872Z,8.77
2019-03-15T09:50:50.725Z,9.53
2019-03-15T09:55:44.892Z,12.37
2019-03-15T10:00:48.571Z,10.43
2019-03-15T10:05:52.247Z,9.87
2019-03-15T10:10:55.912Z,11.80
2019-03-15T10:15:59.582Z,11.93
2019-03-15T10:21:03.250Z,14.77
2019-03-15T10:26:08.697Z,7.63
2019-03-15T10:31:12.379Z,8.90
2019-03-15T10:36:16.036Z,11.27
2019-03-15T10:41:19.698Z,8.43
2019-03-15T10:46:23.345Z,9.77
2019-03-15T10:51:27.296Z,12.33
2019-03-15T10:56:31.315Z,10.97
2019-03-15T11:01:34.998Z,13.40
2019-03-15T11:06:41.669Z,11.90
2019-03-15T11:11:45.365Z,9.93
2019-03-15T11:16:49.037Z,23.33
2019-03-15T11:21:52.929Z,12.87
2019-03-15T11:26:56.589Z,9.07
2019-03-15T11:32:00.284Z,16.27
2019-03-15T11:37:09.714Z,24.10
2019-03-15T11:42:14.936Z,32.93
2019-03-15T11:47:18.971Z,22.47
2019-03-15T11:52:22.707Z,30.20
2019-03-15T11:57:26.382Z,16.00
2019-03-15T12:02:30.247Z,11.47
2019-03-15T12:07:35.161Z,10.27
2019-03-15T12:12:38.822Z,12.67
2019-03-15T12:17:42.548Z,10.70
2019-03-15T12:22:46.211Z,13.03
2019-03-15T12:27:49.883Z,9.27
2019-03-15T12:32:57.887Z,9.60
2019-03-15T12:38:01.881Z,10.60
2019-03-15T12:43:05.976Z,9.07
2019-03-15T12:48:09.711Z,8.27
2019-03-15T12:53:14.076Z,12.17
2019-03-15T12:58:17.727Z,7.47
2019-03-15T13:03:21.469Z,9.17
2019-03-15T13:08:25.628Z,8.63
2019-03-15T13:13:29.284Z,9.30
2019-03-15T13:18:33.206Z,8.90
2019-03-15T13:23:36.902Z,9.33
2019-03-15T13:28:40.623Z,9.50
2019-03-15T13:33:44.337Z,6.80
2019-03-15T13:38:47.976Z,8.73
2019-03-15T13:43:51.633Z,8.27
2019-03-15T13:48:55.566Z,8.60
2019-03-15T13:54:00.739Z,7.17
2019-03-15T13:59:04.451Z,8.47
2019-03-15T14:04:08.207Z,8.27
2019-03-15T14:09:11.935Z,7.13
2019-03-15T14:14:15.633Z,5.10
2019-03-15T14:19:23.484Z,4.27
2019-03-15T14:24:27.145Z,5.77
2019-03-15T14:29:30.827Z,6.40
2019-03-15T14:34:34.528Z,10.07
2019-03-15T14:39:38.451Z,6.00
2019-03-15T14:44:42.553Z,13.83
2019-03-15T14:49:49.569Z,6.10
2019-03-15T14:54:53.345Z,6.23
2019-03-15T14:59:57.021Z,6.77
2019-03-15T15:05:16.025Z,7.65
2019-03-15T15:10:21.431Z,7.93
2019-03-15T15:15:25.365Z,7.33
2019-03-15T15:20:29.421Z,7.20
2019-03-15T15:25:42.364Z,5.80
2019-03-15T15:30:51.860Z,9.43
2019-03-15T15:35:55.880Z,6.70
2019-03-15T15:41:00.812Z,6.23
2019-03-15T15:46:04.480Z,4.87
2019-03-15T15:51:08.692Z,5.60
2019-03-15T15:56:13.427Z,5.97
2019-03-15T16:01:17.195Z,4.27
2019-03-15T16:06:20.898Z,4.87
2019-03-15T16:11:37.951Z,5.07
2019-03-15T16:16:41.637Z,4.40
2019-03-15T16:21:45.288Z,3.70
2019-03-15T16:26:49.247Z,3.93
2019-03-15T16:31:53.052Z,3.73
2019-03-15T16:36:57.105Z,3.57
2019-03-15T16:42:00.769Z,3.20
2019-03-15T16:47:04.565Z,4.10
2019-03-15T16:52:08.238Z,2.73
2019-03-15T16:57:12.080Z,6.50
2019-03-15T17:02:16.424Z,2.13
2019-03-15T17:07:20.427Z,4.53
2019-03-15T17:12:25.492Z,4.20
2019-03-15T17:17:29.201Z,6.77
2019-03-15T17:22:32.960Z,6.87
2019-03-15T17:27:36.619Z,1.43
2019-03-15T17:32:42.437Z,3.23
2019-03-15T17:37:46.236Z,1.53
2019-03-15T17:42:52.002Z,1.37
2019-03-15T17:47:55.698Z,3.50
2019-03-15T17:52:59.736Z,2.53
2019-03-15T17:58:03.644Z,5.67
2019-03-15T18:03:19.762Z,3.03
2019-03-15T18:08:14.384Z,2.70
2019-03-15T18:13:18.090Z,2.97
2019-03-15T18:18:21.944Z,1.93
2019-03-15T18:23:25.671Z,2.23
2019-03-15T18:28:29.629Z,3.00
2019-03-15T18:33:33.334Z,5.20
2019-03-15T18:39:15.380Z,4.53
2019-03-15T18:44:19.319Z,3.77
2019-03-15T18:49:31.135Z,4.37
2019-03-15T18:54:37.784Z,3.67
2019-03-15T18:59:40.591Z,4.43
2019-03-15T19:04:44.344Z,4.13
2019-03-15T19:09:48.006Z,3.40
2019-03-15T19:14:51.661Z,4.60
2019-03-15T19:19:55.391Z,4.60
2019-03-15T19:24:59.357Z,2.73
2019-03-15T19:30:03.612Z,6.17
2019-03-15T19:35:08.178Z,4.73
2019-03-15T19:40:12.499Z,3.83
2019-03-15T19:45:16.204Z,4.57
2019-03-15T19:50:19.936Z,5.97
2019-03-15T19:55:23.636Z,3.73
2019-03-15T20:00:27.386Z,4.63
2019-03-15T20:05:31.023Z,3.60
2019-03-15T20:10:35.247Z,4.67
2019-03-15T20:15:38.888Z,5.03
2019-03-15T20:20:43.514Z,5.60
2019-03-15T20:25:47.497Z,6.07
2019-03-15T20:30:52.425Z,9.03
2019-03-15T20:35:56.216Z,4.60
2019-03-15T20:40:59.860Z,7.47
2019-03-15T20:46:03.593Z,9.30
2019-03-15T20:51:07.252Z,8.37
2019-03-15T20:56:11.301Z,5.90
2019-03-15T21:01:14.974Z,8.10
2019-03-15T21:06:18.653Z,6.60
2019-03-15T21:11:22.313Z,8.00
2019-03-15T21:16:28.355Z,5.83
2019-03-15T21:21:31.481Z,7.50
2019-03-15T21:26:35.177Z,11.57
2019-03-15T21:31:38.897Z,5.67
2019-03-15T21:36:42.560Z,8.50
2019-03-15T21:41:46.196Z,9.30
2019-03-15T21:46:50.156Z,7.73
2019-03-15T21:51:53.796Z,8.57
2019-03-15T21:56:57.486Z,7.60
2019-03-15T22:02:01.316Z,8.10
2019-03-15T22:07:04.964Z,11.23
2019-03-15T22:12:08.604Z,8.80
2019-03-15T22:17:12.360Z,7.43
2019-03-15T22:22:16.008Z,7.93
2019-03-15T22:27:21.831Z,9.53
2019-03-15T22:32:25.498Z,8.27
2019-03-15T22:37:29.165Z,11.07
2019-03-15T22:42:33.155Z,11.23
2019-03-15T22:47:36.868Z,12.23
2019-03-15T22:52:40.522Z,11.20
2019-03-15T22:57:44.194Z,11.30
2019-03-15T23:02:47.949Z,12.27
2019-03-15T23:07:51.632Z,7.47
2019-03-15T23:12:55.276Z,8.23
2019-03-15T23:17:59.460Z,7.63
2019-03-15T23:23:07.551Z,10.77
2019-03-15T23:28:11.212Z,11.27
2019-03-15T23:33:15.209Z,7.87
2019-03-15T23:38:18.867Z,11.63
2019-03-15T23:43:22.500Z,9.80
2019-03-15T23:48:26.153Z,10.60
2019-03-15T23:53:29.790Z,7.73
2019-03-15T23:58:33.458Z,9.20
